Flight Track Log - Related Links

Times and Time Zones

All times are in EDT time to prevent confusion due to time zone crossing. See the SWA1729 flight status page for this flight to view local times or setup timezone preferences in your user account.

Time Position Orientation Groundspeed Altitude Reporting Facility
EDT Latitude Longitude Course Direction KTS MPH feet Rate Location/Type
Thu 10:39:00 PM 29.6411 -95.2489 41° Northeast 236 272 2,300  Level Houston Center
Thu 10:40:01 PM 29.6917 -95.3003 319° Northwest 235 270 5,100 1,328 Climbing Houston Center
Thu 10:41:02 PM 29.7275 -95.3803 297° West 274 315 5,000 1,328 Descending Houston Center
Thu 10:42:03 PM 29.7619 -95.4594 297° West 279 321 7,800 2,878 Climbing Houston Center
Thu 10:43:05 PM 29.7969 -95.5394 297° West 280 322 10,900 2,634 Climbing Houston Center
Thu 10:44:06 PM 29.8297 -95.6400 291° West 338 389 13,200 2,410 Climbing Houston Center
Thu 10:45:07 PM 29.8558 -95.7508 285° West 358 412 15,800 2,607 Climbing Houston Center
Thu 10:46:08 PM 29.8850 -95.8675 286° West 375 432 18,500 2,361 Climbing Houston Center
Thu 10:47:09 PM 29.9133 -95.9853 286° West 382 440 20,600 2,459 Climbing Houston Center
Thu 10:48:10 PM 29.9319 -96.1242 279° West 393 452 23,500 2,262 Climbing Houston Center
Thu 10:49:11 PM 29.9386 -96.2478 274° West 391 450 25,200 1,475 Climbing Houston Center
Thu 10:50:12 PM 29.9469 -96.3783 274° West 410 472 26,500 1,770 Climbing Houston Center
Thu 10:51:13 PM 29.9536 -96.5111 273° West 417 480 28,800 2,311 Climbing Houston Center
Thu 10:52:14 PM 29.9806 -96.6336 284° West 397 457 31,200 1,918 Climbing Houston Center
Thu 10:53:15 PM 30.0081 -96.7542 285° West 391 450 32,700 1,475 Climbing Houston Center
Thu 10:54:16 PM 30.0347 -96.8736 284° West 388 447 34,200 1,082 Climbing Houston Center
Thu 10:55:17 PM 30.0597 -96.9892 284° West 378 435 34,900 393 Climbing Houston Center
Thu 10:56:18 PM 30.0908 -97.1314 284° West 381 438 35,000 49 Climbing Houston Center
Thu 10:57:19 PM 30.1128 -97.2333 284° West 377 434 35,000  Level Houston Center
Thu 10:58:20 PM 30.1383 -97.3542 284° West 379 436 35,000  Level Houston Center
Thu 10:59:21 PM 30.1642 -97.4753 284° West 382 440 35,000 492 Level Houston Center
Thu 11:00:22 PM 30.1900 -97.5925 284° West 374 430 36,000 492 Climbing Houston Center
Thu 11:01:23 PM 30.2150 -97.7114 284° West 375 432 36,000  Level Houston Center
Thu 11:02:24 PM 30.2400 -97.8319 284° West 379 436 36,000  Level Houston Center
Thu 11:03:25 PM 30.2694 -97.9703 284° West 380 437 36,000  Level Houston Center
Thu 11:04:26 PM 30.2947 -98.0906 284° West 385 443 36,000  Level Houston Center
Thu 11:05:27 PM 30.3208 -98.2147 284° West 384 442 36,000  Level Houston Center
Thu 11:06:28 PM 30.3461 -98.3358 284° West 383 441 36,000  Level Houston Center
Thu 11:07:29 PM 30.3708 -98.4572 283° West 383 441 36,000  Level Houston Center
Thu 11:08:30 PM 30.3956 -98.5781 283° West 383 441 36,000  Level Houston Center
Thu 11:09:31 PM 30.4200 -98.7000 283° West 384 442 36,000  Level Houston Center
Thu 11:10:32 PM 30.4456 -98.8219 284° West 387 445 36,000  Level Houston Center
Thu 11:11:33 PM 30.4708 -98.9442 284° West 386 444 36,000  Level Houston Center
Thu 11:12:34 PM 30.4956 -99.0669 283° West 388 447 36,000  Level Houston Center
Thu 11:13:35 PM 30.5203 -99.1839 284° West 386 444 36,000  Level Houston Center
Thu 11:14:36 PM 30.5433 -99.3064 282° West 391 450 36,000 -50 Level Houston Center
Thu 11:15:36 PM 30.5683 -99.4275 284° West 388 447 35,900  Descending Houston Center
Thu 11:16:37 PM 30.5911 -99.5478 282° West 385 443 36,000 49 Climbing Houston Center
Thu 11:17:38 PM 30.6150 -99.6678 283° West 383 441 36,000  Level Houston Center
Thu 11:18:39 PM 30.6389 -99.7869 283° West 381 438 36,000  Level Houston Center
Thu 11:19:40 PM 30.6617 -99.9067 283° West 383 441 36,000  Level Houston Center
Thu 11:20:41 PM 30.6894 -100.0511 283° West 384 442 36,000  Level Houston Center
Thu 11:21:42 PM 30.7111 -100.1697 282° West 376 433 36,000  Level Houston Center
Thu 11:22:43 PM 30.7342 -100.2850 283° West 375 432 36,000  Level Houston Center
Thu 11:23:44 PM 30.7567 -100.4031 283° West 377 434 36,000  Level Houston Center
Thu 11:24:45 PM 30.7778 -100.5228 282° West 379 436 36,000  Level Houston Center
Thu 11:25:45 PM 30.8006 -100.6417 283° West 379 436 36,000  Level Houston Center
Thu 11:26:46 PM 30.8228 -100.7606 282° West 380 437 36,000  Level Houston Center
Thu 11:27:47 PM 30.8450 -100.8800 282° West 381 438 36,000  Level Houston Center
Thu 11:28:48 PM 30.8669 -100.9986 282° West 380 437 36,000  Level Houston Center
Thu 11:29:49 PM 30.8875 -101.1186 281° West 379 436 36,000  Level Houston Center
Thu 11:30:50 PM 30.9117 -101.2350 284° West 374 430 36,000  Level Houston Center
Thu 11:31:51 PM 30.9342 -101.3603 282° West 378 435 36,000  Level Houston Center
Thu 11:32:39 PM 30.9503 -101.4550 281° West 377 434 36,000  Level Albuquerque Center
Thu 11:33:40 PM 30.9708 -101.5744 281° West 376 433 36,000  Level Albuquerque Center
Thu 11:34:41 PM 30.9972 -101.7153 282° West 374 430 36,000  Level Albuquerque Center
Thu 11:35:43 PM 31.0181 -101.8344 282° West 374 430 36,000  Level Albuquerque Center
Thu 11:36:44 PM 31.0364 -101.9342 282° West 374 430 36,000  Level Albuquerque Center
Thu 11:37:45 PM 31.0614 -102.0778 282° West 377 434 36,000  Level Albuquerque Center
Thu 11:38:47 PM 31.0817 -102.1992 281° West 378 435 36,000  Level Albuquerque Center
Thu 11:39:48 PM 31.1025 -102.3192 281° West 379 436 36,000  Level Albuquerque Center
Thu 11:40:49 PM 31.1233 -102.4403 281° West 379 436 36,000  Level Albuquerque Center
Thu 11:41:51 PM 31.1436 -102.5625 281° West 379 436 36,000  Level Albuquerque Center
Thu 11:42:52 PM 31.1639 -102.6836 281° West 379 436 36,000  Level Albuquerque Center
Thu 11:43:54 PM 31.1861 -102.8064 282° West 382 440 36,000  Level Albuquerque Center
Thu 11:44:55 PM 31.2061 -102.9275 281° West 383 441 36,000  Level Albuquerque Center
Thu 11:45:56 PM 31.2256 -103.0492 281° West 382 440 36,000  Level Albuquerque Center
Thu 11:46:58 PM 31.2503 -103.1925 281° West 379 436 36,000  Level Albuquerque Center
Thu 11:47:59 PM 31.2708 -103.3119 281° West 376 433 36,000  Level Albuquerque Center
Thu 11:49:00 PM 31.2889 -103.4306 280° West 375 432 36,000  Level Albuquerque Center
Thu 11:50:02 PM 31.3092 -103.5508 281° West 376 433 36,000  Level Albuquerque Center
Thu 11:51:03 PM 31.3269 -103.6708 280° West 376 433 36,000  Level Albuquerque Center
Thu 11:52:05 PM 31.3472 -103.7861 282° West 379 436 36,000  Level Albuquerque Center
Thu 11:53:06 PM 31.3669 -103.9069 281° West 380 437 36,000  Level Albuquerque Center
Thu 11:54:07 PM 31.3867 -104.0267 281° West 378 435 36,000  Level Albuquerque Center
Thu 11:55:09 PM 31.4078 -104.1689 280° West 373 429 36,000  Level Albuquerque Center
Thu 11:56:10 PM 31.4278 -104.2867 281° West 371 427 36,000  Level Albuquerque Center
Thu 11:57:11 PM 31.4456 -104.4042 280° West 369 425 36,000  Level Albuquerque Center
Thu 11:58:13 PM 31.4600 -104.5194 278° West 365 420 36,000 -49 Level Albuquerque Center
Thu 11:59:14 PM 31.4717 -104.6350 277° West 362 417 35,900  Descending Albuquerque Center
Fri 12:00:15 AM 31.4836 -104.7494 277° West 358 412 36,000 -344 Climbing Albuquerque Center
Fri 12:01:16 AM 31.4956 -104.8619 277° West 353 406 35,200 -1,967 Descending Albuquerque Center
Fri 12:02:17 AM 31.5075 -104.9731 277° West 348 400 32,000 -3,512 Descending Albuquerque Center
Fri 12:03:19 AM 31.5214 -105.1086 277° West 350 403 28,000 -3,268 Descending Albuquerque Center
Fri 12:04:20 AM 31.5328 -105.2264 277° West 361 415 25,300 -2,713 Descending Albuquerque Center
Fri 12:05:14 AM 31.5383 -105.3383 273° West 367 422 22,800 -2,557 Descending Albuquerque Center
Fri 12:06:22 AM 31.5544 -105.4533 279° West 343 395 20,100 -2,558 Descending Albuquerque Center
Fri 12:07:23 AM 31.5686 -105.5603 279° West 329 379 17,300 -2,607 Descending Albuquerque Center
Fri 12:08:24 AM 31.6008 -105.6600 291° West 336 387 14,800 -2,439 Descending Albuquerque Center
Fri 12:09:26 AM 31.6317 -105.7614 290° West 331 381 12,300 -2,049 Descending Albuquerque Center
Fri 12:10:27 AM 31.6619 -105.8594 290° West 322 371 10,600 -1,180 Descending Albuquerque Center
Fri 12:11:28 AM 31.6872 -105.9425 290° West 269 310 9,900 -1,230 Descending Albuquerque Center
Fri 12:12:29 AM 31.7164 -106.0344 290° West 251 289 8,100 -1,525 Descending Albuquerque Center
Fri 12:13:30 AM 31.7397 -106.1075 291° West 242 278 6,800 -984 Descending Albuquerque Center
Fri 12:14:31 AM 31.7614 -106.1761 290° West 227 261 6,100 -590 Descending Albuquerque Center
Fri 12:15:32 AM 31.7789 -106.2306 291° West 177 204 5,600 -492 Descending Albuquerque Center
Fri 12:16:33 AM 31.7922 -106.2742 290° West 147 169 5,100 -393 Descending Albuquerque Center
Fri 12:17:34 AM 31.7983 -106.3108 281° West 118 136 4,800 -492 Descending Albuquerque Center
Fri 12:18:35 AM 31.8003 -106.3503 273° West 120 138 4,100 -689 Descending Albuquerque Center
Fri 12:20:00 AM 31.8000 -106.3667 270° West  Level FlightAware Approximate
Fri 12:27:00 AM 31.8072 -106.3764 270° West  Level Estimated
Fri 12:28:00 AM 31.8072 -106.3764 270° West  Level Estimated
Fri 12:29:00 AM 31.8072 -106.3764 270° West  Level Estimated
Fri 12:30:00 AM 31.8072 -106.3764 270° West  Level Estimated

Login

Don't have an account? Register now (free) for customized features, flight alerts, and more!